Time;durP1;ratioP1;P1;durP2;ratioP2;P2;SDS_P1;SDS_P2;PMS_P1;PMS_P2;Temp;Humidity;BMP_temperature;BMP_pressure;BME280_temperature;BME280_humidity;BME280_pressure;Samples;Min_cycle;Max_cycle;Signal;HPM_P1;HPM_P2
2022/07/12 00:02:04;;;;;;;2.90;2.22;;;13.60;99.90;;;;;;6186631;23;20055;-74
2022/07/12 00:04:30;;;;;;;2.50;2.17;;;13.60;99.90;;;;;;6187309;23;20322;-76
2022/07/12 00:06:56;;;;;;;2.55;1.50;;;13.60;99.90;;;;;;6186560;23;20331;-75
2022/07/12 00:09:21;;;;;;;1.85;1.65;;;13.50;99.90;;;;;;6184563;23;20095;-75
2022/07/12 00:11:47;;;;;;;1.65;1.30;;;13.50;99.90;;;;;;6186749;23;20020;-75
2022/07/12 00:14:13;;;;;;;2.20;2.00;;;13.50;99.90;;;;;;6161613;23;20016;-75
2022/07/12 00:16:39;;;;;;;1.98;1.50;;;13.40;99.90;;;;;;6187626;23;20020;-75
2022/07/12 00:19:05;;;;;;;3.08;2.40;;;13.30;99.90;;;;;;6161452;23;20027;-75
2022/07/12 00:21:31;;;;;;;4.80;3.00;;;13.30;99.90;;;;;;6187049;23;20114;-75
2022/07/12 00:23:59;;;;;;;4.10;2.28;;;13.20;99.90;;;;;;6210417;23;20059;-75
2022/07/12 00:26:25;;;;;;;1.77;1.60;;;13.10;99.90;;;;;;6209081;23;20035;-75
2022/07/12 00:28:54;;;;;;;2.20;1.85;;;13.10;99.90;;;;;;6186833;23;20666;-75
2022/07/12 00:31:21;;;;;;;2.50;1.92;;;13.10;99.90;;;;;;6186778;23;20528;-75
2022/07/12 00:33:47;;;;;;;2.85;2.17;;;13.10;99.90;;;;;;6186853;23;20043;-75
2022/07/12 00:36:13;;;;;;;3.35;2.20;;;13.10;99.90;;;;;;6186179;23;20030;-75
2022/07/12 00:38:38;;;;;;;3.17;1.88;;;13.10;99.90;;;;;;6161387;23;20579;-75
2022/07/12 00:41:05;;;;;;;2.17;1.92;;;13.20;99.90;;;;;;6210456;23;20016;-75
2022/07/12 00:43:30;;;;;;;3.28;1.50;;;13.20;99.90;;;;;;6161576;23;20020;-75
2022/07/12 00:45:57;;;;;;;6.22;1.60;;;13.20;99.90;;;;;;6187134;23;20028;-75
2022/07/12 00:48:26;;;;;;;1.60;1.40;;;13.10;99.90;;;;;;6211715;23;20074;-75
2022/07/12 00:50:52;;;;;;;2.10;1.13;;;13.10;99.90;;;;;;6210384;23;20063;-75
2022/07/12 00:53:23;;;;;;;2.05;1.40;;;13.10;99.90;;;;;;6162483;23;20154;-75
2022/07/12 00:55:58;;;;;;;3.00;2.08;;;13.10;99.90;;;;;;6186161;23;20066;-75
2022/07/12 00:58:26;;;;;;;2.85;1.95;;;13.10;99.90;;;;;;6186098;23;20023;-76
2022/07/12 01:00:56;;;;;;;2.40;1.52;;;13.10;99.90;;;;;;6186453;23;20024;-74
2022/07/12 01:03:27;;;;;;;6.05;2.55;;;13.00;99.90;;;;;;6162714;23;20016;-76
2022/07/12 01:05:56;;;;;;;6.40;3.40;;;13.00;99.90;;;;;;6185071;23;20009;-76
2022/07/12 01:08:24;;;;;;;2.80;1.75;;;13.00;99.90;;;;;;6210523;23;20075;-76
2022/07/12 01:10:50;;;;;;;3.05;1.90;;;12.90;99.90;;;;;;6209892;23;20020;-76
2022/07/12 01:13:16;;;;;;;3.30;2.35;;;12.90;99.90;;;;;;6210427;23;20349;-76
2022/07/12 01:15:43;;;;;;;1.80;1.60;;;12.80;99.90;;;;;;6183887;23;20589;-76
2022/07/12 01:18:09;;;;;;;2.97;2.05;;;12.80;99.90;;;;;;6210053;23;20065;-76
2022/07/12 01:20:35;;;;;;;2.13;1.50;;;12.80;99.90;;;;;;6209442;23;20043;-76
2022/07/12 01:23:05;;;;;;;3.38;1.50;;;12.80;99.90;;;;;;6158760;23;20589;-76
2022/07/12 01:25:30;;;;;;;2.65;1.50;;;12.70;99.90;;;;;;6186098;23;20054;-76
2022/07/12 01:27:57;;;;;;;2.40;1.40;;;12.70;99.90;;;;;;6185434;23;20465;-75
2022/07/12 01:30:26;;;;;;;2.65;1.38;;;12.60;99.90;;;;;;6209206;23;20019;-76
2022/07/12 01:32:55;;;;;;;1.88;1.10;;;12.60;99.90;;;;;;6185464;23;20484;-75
2022/07/12 01:35:22;;;;;;;1.98;1.40;;;12.60;99.90;;;;;;6202352;23;20039;-76
2022/07/12 01:37:49;;;;;;;2.13;1.38;;;12.60;99.90;;;;;;6184532;23;20075;-76
2022/07/12 01:40:16;;;;;;;2.38;1.30;;;12.60;99.90;;;;;;6209150;23;20024;-76
2022/07/12 01:42:45;;;;;;;2.60;1.45;;;12.60;99.90;;;;;;6184900;23;20024;-75
2022/07/12 01:45:12;;;;;;;3.20;1.27;;;12.60;99.90;;;;;;6184835;23;20357;-76
2022/07/12 01:47:38;;;;;;;8.73;2.08;;;12.60;99.90;;;;;;6208989;23;20283;-76
2022/07/12 01:50:08;;;;;;;3.92;2.40;;;12.50;99.90;;;;;;6186151;23;20495;-76
2022/07/12 01:52:35;;;;;;;3.83;2.65;;;12.50;99.90;;;;;;6184807;23;20023;-76
2022/07/12 01:55:01;;;;;;;1.70;1.55;;;12.40;99.90;;;;;;6185974;23;20110;-76
2022/07/12 01:57:27;;;;;;;3.42;2.10;;;12.40;99.90;;;;;;6184730;23;20020;-76
2022/07/12 01:59:54;;;;;;;3.10;1.88;;;12.40;99.90;;;;;;6159640;23;20016;-76
2022/07/12 02:02:20;;;;;;;3.00;1.60;;;12.40;99.90;;;;;;6210621;23;20031;-75
2022/07/12 02:04:48;;;;;;;2.55;1.70;;;12.40;99.90;;;;;;6183684;23;20043;-76
2022/07/12 02:07:13;;;;;;;2.13;1.50;;;12.40;99.90;;;;;;6185300;23;20024;-76
2022/07/12 02:09:39;;;;;;;1.90;1.45;;;12.40;99.90;;;;;;6185012;23;20020;-75
2022/07/12 02:12:05;;;;;;;1.65;1.20;;;12.40;99.90;;;;;;6185489;23;20012;-76
2022/07/12 02:14:31;;;;;;;2.00;1.02;;;12.30;99.90;;;;;;6188498;23;20028;-76
2022/07/12 02:16:56;;;;;;;1.83;1.23;;;12.30;99.90;;;;;;6188887;23;20074;-76
2022/07/12 02:19:25;;;;;;;4.43;1.77;;;12.30;99.90;;;;;;6212820;23;20087;-76
2022/07/12 02:21:51;;;;;;;4.38;1.58;;;12.30;99.90;;;;;;6164435;23;20016;-77
2022/07/12 02:24:17;;;;;;;3.83;1.90;;;12.20;99.90;;;;;;6187704;23;20111;-76
2022/07/12 02:26:43;;;;;;;3.03;1.80;;;12.20;99.90;;;;;;6187485;23;20020;-76
2022/07/12 02:29:09;;;;;;;2.65;1.75;;;12.20;99.90;;;;;;6212584;23;20020;-76
2022/07/12 02:31:35;;;;;;;2.22;1.65;;;12.20;99.90;;;;;;6211549;23;20043;-76
2022/07/12 02:34:01;;;;;;;1.73;1.45;;;12.20;99.90;;;;;;6186884;23;20449;-76
2022/07/12 02:36:31;;;;;;;3.60;2.03;;;12.20;99.90;;;;;;6162594;23;20457;-76
2022/07/12 02:39:02;;;;;;;32.13;3.03;;;12.20;99.90;;;;;;6164062;23;20380;-76
2022/07/12 02:41:29;;;;;;;;;;;12.10;99.90;;;;;;6164333;23;20028;-76
2022/07/12 02:43:55;;;;;;;6.93;2.42;;;12.10;99.90;;;;;;6163556;23;19919;-76
2022/07/12 02:46:21;;;;;;;1.65;1.23;;;12.00;99.90;;;;;;6187585;23;20090;-76
2022/07/12 02:48:46;;;;;;;4.88;2.35;;;12.00;99.90;;;;;;6186838;23;20016;-76
2022/07/12 02:51:13;;;;;;;3.03;1.92;;;11.90;99.90;;;;;;6161423;23;20099;-76
2022/07/12 02:53:38;;;;;;;4.28;1.77;;;11.90;99.90;;;;;;6161337;23;20249;-76
2022/07/12 02:56:05;;;;;;;2.50;1.50;;;11.90;99.90;;;;;;6211027;23;20028;-76
2022/07/12 02:58:30;;;;;;;2.45;1.38;;;11.90;99.90;;;;;;6186272;23;20331;-77
2022/07/12 03:00:59;;;;;;;2.20;1.38;;;11.90;99.90;;;;;;6187293;23;20039;-76
2022/07/12 03:03:25;;;;;;;2.05;1.45;;;11.90;99.90;;;;;;6187068;23;20042;-76
2022/07/12 03:05:51;;;;;;;2.72;1.60;;;11.90;99.90;;;;;;6162979;23;20024;-76
2022/07/12 03:08:19;;;;;;;2.17;1.50;;;11.90;99.90;;;;;;6187276;23;20016;-76
2022/07/12 03:10:45;;;;;;;1.50;1.02;;;11.90;99.90;;;;;;6162049;23;20292;-76
2022/07/12 03:13:11;;;;;;;2.10;1.10;;;11.90;99.90;;;;;;6187286;23;20020;-76
2022/07/12 03:15:37;;;;;;;1.50;1.00;;;11.80;99.90;;;;;;6186578;23;20403;-77
2022/07/12 03:18:03;;;;;;;3.75;2.25;;;11.80;99.90;;;;;;6211942;23;20028;-76
2022/07/12 03:20:30;;;;;;;3.72;2.17;;;11.80;99.90;;;;;;6186585;23;20043;-77
2022/07/12 03:22:57;;;;;;;3.13;2.17;;;11.80;99.90;;;;;;6162579;23;20027;-76
2022/07/12 03:25:26;;;;;;;6.28;3.55;;;11.70;99.90;;;;;;6211750;23;20016;-77
2022/07/12 03:27:54;;;;;;;5.03;2.38;;;11.80;99.90;;;;;;6163071;23;20107;-77
2022/07/12 03:30:20;;;;;;;4.05;2.25;;;11.70;99.90;;;;;;6186937;23;20020;-77
2022/07/12 03:32:45;;;;;;;2.65;1.65;;;11.60;99.90;;;;;;6211142;23;20020;-76
2022/07/12 03:35:11;;;;;;;2.50;1.50;;;11.60;99.90;;;;;;6186979;23;20020;-76
2022/07/12 03:37:52;;;;;;;3.13;1.58;;;11.60;99.90;;;;;;6186647;23;20013;-77
2022/07/12 03:40:18;;;;;;;;;;;11.60;99.90;;;;;;6186811;23;20020;-77
2022/07/12 03:42:45;;;;;;;2.25;1.80;;;11.60;99.90;;;;;;6210240;23;20234;-76
2022/07/12 03:45:12;;;;;;;3.80;2.03;;;11.60;99.90;;;;;;6211692;23;20083;-76
2022/07/12 03:47:38;;;;;;;1.85;1.40;;;11.60;99.90;;;;;;6211084;23;20012;-77
2022/07/12 03:50:06;;;;;;;3.15;1.80;;;11.60;99.90;;;;;;6211688;23;20110;-76
2022/07/12 03:52:33;;;;;;;5.55;1.77;;;11.60;99.90;;;;;;6184454;23;20091;-76
2022/07/12 03:55:01;;;;;;;2.45;1.73;;;11.60;99.90;;;;;;6212207;23;20023;-76
2022/07/12 03:57:27;;;;;;;26.20;3.22;;;11.60;99.90;;;;;;6185832;23;20030;-76
2022/07/12 03:59:54;;;;;;;4.20;2.38;;;11.60;99.90;;;;;;6186244;23;20095;-76
2022/07/12 04:02:20;;;;;;;3.97;2.00;;;11.60;99.90;;;;;;6184038;23;20020;-76
2022/07/12 04:04:46;;;;;;;4.00;2.70;;;11.60;99.90;;;;;;6186531;23;20098;-76
2022/07/12 04:07:12;;;;;;;5.20;3.60;;;11.50;99.90;;;;;;6186827;23;20037;-77
2022/07/12 04:09:37;;;;;;;8.00;3.47;;;11.60;99.90;;;;;;6186207;23;20452;-76
2022/07/12 04:12:04;;;;;;;7.93;3.65;;;11.60;99.90;;;;;;6161502;23;20456;-76
2022/07/12 04:14:35;;;;;;;6.40;3.58;;;11.60;99.90;;;;;;6186735;23;20102;-76
2022/07/12 04:17:05;;;;;;;4.85;2.97;;;11.70;99.90;;;;;;6188540;23;20504;-76
2022/07/12 04:19:34;;;;;;;3.65;2.70;;;11.70;99.90;;;;;;6186257;23;20323;-77
2022/07/12 04:22:06;;;;;;;5.25;2.70;;;11.70;99.90;;;;;;6162475;23;20449;-77
2022/07/12 04:24:32;;;;;;;4.13;2.55;;;11.80;99.90;;;;;;6187273;23;20028;-77
2022/07/12 04:26:58;;;;;;;5.10;3.47;;;11.80;99.90;;;;;;6212782;23;20023;-76
2022/07/12 04:29:24;;;;;;;4.45;3.42;;;11.80;99.90;;;;;;6211463;23;20015;-76
2022/07/12 04:31:50;;;;;;;5.03;3.72;;;11.90;99.90;;;;;;6161340;23;20012;-77
2022/07/12 04:34:16;;;;;;;5.80;3.42;;;11.90;99.90;;;;;;6186294;23;20020;-77
2022/07/12 04:36:46;;;;;;;4.63;2.60;;;11.90;99.90;;;;;;6187935;23;20823;-76
2022/07/12 04:39:12;;;;;;;6.50;3.78;;;11.90;99.90;;;;;;6211798;23;20020;-77
2022/07/12 04:41:38;;;;;;;3.85;2.72;;;11.90;99.90;;;;;;6186869;23;20047;-76
2022/07/12 04:44:07;;;;;;;4.13;2.83;;;11.90;99.90;;;;;;6188019;23;20020;-77
2022/07/12 04:46:33;;;;;;;2.83;2.13;;;12.00;99.90;;;;;;6162639;23;20098;-77
2022/07/12 04:49:00;;;;;;;7.10;4.53;;;12.00;99.90;;;;;;6212122;23;20020;-77
2022/07/12 04:51:26;;;;;;;3.75;2.80;;;12.10;99.90;;;;;;6212293;23;20016;-76
2022/07/12 04:53:55;;;;;;;5.15;3.65;;;12.20;99.90;;;;;;6211617;23;20012;-77
2022/07/12 04:56:21;;;;;;;7.38;3.95;;;12.30;99.90;;;;;;6187415;23;20047;-76
2022/07/12 04:58:47;;;;;;;5.25;3.15;;;12.30;99.90;;;;;;6187122;23;20221;-77
2022/07/12 05:01:16;;;;;;;5.88;3.22;;;12.40;99.90;;;;;;6186515;23;20038;-77
2022/07/12 05:03:45;;;;;;;6.90;4.28;;;12.50;99.90;;;;;;6186326;23;20035;-76
2022/07/12 05:06:11;;;;;;;7.20;5.20;;;12.50;99.90;;;;;;6212334;23;20020;-77
2022/07/12 05:08:37;;;;;;;5.20;4.07;;;12.60;99.90;;;;;;6185259;23;20086;-76
2022/07/12 05:11:06;;;;;;;7.53;6.20;;;12.70;99.90;;;;;;6208129;23;20016;-77
2022/07/12 05:13:32;;;;;;;7.07;6.10;;;12.80;99.90;;;;;;6160885;23;20020;-77
2022/07/12 05:15:58;;;;;;;7.07;6.10;;;12.90;99.90;;;;;;6186007;23;20024;-77
2022/07/12 05:18:23;;;;;;;12.40;9.00;;;13.10;99.90;;;;;;6160144;23;20521;-76
2022/07/12 05:20:49;;;;;;;9.93;8.30;;;13.20;99.90;;;;;;6208835;23;20094;-76
2022/07/12 05:23:17;;;;;;;9.55;7.65;;;13.30;99.90;;;;;;6182697;23;20023;-77
2022/07/12 05:25:43;;;;;;;8.93;7.97;;;13.40;99.90;;;;;;6181887;23;20055;-77
2022/07/12 05:28:11;;;;;;;10.32;8.35;;;13.50;99.90;;;;;;6183744;23;20568;-77
2022/07/12 05:30:37;;;;;;;10.40;9.15;;;13.60;99.90;;;;;;6184572;23;20074;-77
2022/07/12 05:33:02;;;;;;;11.05;8.98;;;13.70;99.90;;;;;;6184719;23;20024;-77
2022/07/12 05:35:28;;;;;;;9.82;8.82;;;13.80;99.90;;;;;;6183939;23;20027;-77
2022/07/12 05:37:57;;;;;;;11.13;9.73;;;14.00;99.90;;;;;;6184337;23;20017;-78
2022/07/12 05:40:23;;;;;;;10.43;9.32;;;14.20;99.90;;;;;;6158859;23;20024;-78
2022/07/12 05:42:54;;;;;;;11.63;10.00;;;14.30;99.90;;;;;;6180990;23;20023;-78
2022/07/12 05:45:22;;;;;;;11.15;9.95;;;14.50;99.90;;;;;;6161519;23;20024;-83
2022/07/12 05:47:48;;;;;;;11.57;10.38;;;14.60;99.90;;;;;;6186545;23;20066;-83
2022/07/12 05:50:14;;;;;;;11.30;10.20;;;14.70;99.90;;;;;;6185574;23;20020;-82
2022/07/12 05:55:24;;;;;;;10.00;9.00;;;14.90;99.90;;;;;;6190234;23;20024;-82
2022/07/12 05:57:53;;;;;;;10.43;9.20;;;15.10;99.90;;;;;;6185104;23;20016;-82
2022/07/12 06:00:19;;;;;;;10.30;9.30;;;15.20;99.90;;;;;;6160771;23;20024;-82
2022/07/12 06:02:44;;;;;;;9.32;8.32;;;15.20;99.90;;;;;;6187380;23;20017;-82
2022/07/12 06:05:10;;;;;;;10.23;8.93;;;15.30;99.90;;;;;;6185018;23;20013;-82
2022/07/12 06:07:36;;;;;;;9.05;8.07;;;15.40;99.90;;;;;;6186655;23;20024;-83
2022/07/12 06:10:03;;;;;;;8.63;7.15;;;15.50;99.90;;;;;;6186288;23;20020;-82
2022/07/12 06:12:29;;;;;;;9.57;8.25;;;15.50;99.90;;;;;;6186202;23;20039;-83
2022/07/12 06:14:55;;;;;;;8.68;7.78;;;15.60;99.90;;;;;;6161458;23;20493;-83
2022/07/12 06:17:24;;;;;;;8.48;7.65;;;15.70;99.90;;;;;;6184968;23;20101;-82
2022/07/12 06:19:50;;;;;;;7.90;7.20;;;15.70;99.90;;;;;;6185440;23;20012;-83
2022/07/12 06:22:15;;;;;;;7.82;6.85;;;15.70;99.90;;;;;;6180161;23;20013;-83
2022/07/12 06:24:44;;;;;;;8.57;7.55;;;15.80;99.90;;;;;;6204705;23;20083;-81
2022/07/12 06:27:11;;;;;;;8.43;7.35;;;15.80;99.90;;;;;;6178873;23;20080;-81
2022/07/12 06:29:36;;;;;;;8.07;7.28;;;15.90;99.90;;;;;;6156109;23;20615;-82
2022/07/12 06:32:02;;;;;;;9.02;7.85;;;15.90;99.90;;;;;;6179598;23;20024;-82
2022/07/12 06:34:28;;;;;;;8.55;7.03;;;16.00;99.90;;;;;;6156123;23;20408;-78
2022/07/12 06:36:54;;;;;;;9.43;7.38;;;16.10;99.90;;;;;;6182358;23;20036;-82
2022/07/12 06:39:19;;;;;;;7.80;7.00;;;16.20;99.90;;;;;;6181173;23;20338;-82
2022/07/12 06:41:45;;;;;;;7.93;7.13;;;16.20;99.90;;;;;;6174126;23;20074;-82
2022/07/12 06:44:11;;;;;;;7.13;6.20;;;16.30;99.90;;;;;;6180564;23;20075;-82
2022/07/12 06:46:37;;;;;;;7.85;7.13;;;16.30;99.90;;;;;;6157146;23;20020;-82
2022/07/12 06:49:03;;;;;;;8.10;6.80;;;16.40;99.90;;;;;;6157261;23;20126;-82
2022/07/12 06:51:28;;;;;;;8.00;7.30;;;16.50;99.90;;;;;;6182109;23;20017;-82
2022/07/12 06:53:54;;;;;;;8.32;7.10;;;16.50;99.90;;;;;;6157275;23;20070;-82
2022/07/12 06:56:20;;;;;;;7.45;6.55;;;16.60;99.90;;;;;;6181801;23;20249;-82
2022/07/12 06:58:46;;;;;;;6.32;5.68;;;16.70;99.90;;;;;;6158339;23;20099;-83
2022/07/12 07:01:11;;;;;;;7.78;6.60;;;16.80;99.90;;;;;;6181974;23;20028;-82
2022/07/12 07:03:37;;;;;;;7.60;6.60;;;16.80;99.90;;;;;;6158628;23;20090;-82
2022/07/12 07:06:03;;;;;;;6.88;6.18;;;16.90;99.90;;;;;;6158225;23;20370;-82
2022/07/12 07:08:31;;;;;;;7.47;6.78;;;17.00;99.90;;;;;;6181915;23;20023;-82
2022/07/12 07:10:57;;;;;;;7.00;5.93;;;17.10;99.90;;;;;;6182831;23;20519;-82
2022/07/12 07:13:26;;;;;;;6.63;6.03;;;17.20;99.90;;;;;;6182483;23;20013;-82
2022/07/12 07:15:51;;;;;;;6.93;6.22;;;17.30;99.90;;;;;;6158125;23;20025;-83
2022/07/12 07:18:17;;;;;;;6.82;6.13;;;17.50;99.90;;;;;;6207924;23;20032;-83
2022/07/12 07:20:43;;;;;;;7.25;6.55;;;17.50;99.90;;;;;;6181244;23;20017;-82
2022/07/12 07:23:10;;;;;;;6.53;5.93;;;17.60;99.90;;;;;;6156394;23;20361;-82
2022/07/12 07:25:36;;;;;;;6.90;6.30;;;17.70;99.90;;;;;;6133301;23;20028;-83
2022/07/12 07:28:02;;;;;;;6.82;6.22;;;18.00;99.90;;;;;;6157400;23;20020;-83
2022/07/12 07:33:12;;;;;;;7.32;6.50;;;18.30;99.90;;;;;;6161825;23;20020;-82
2022/07/12 07:35:38;;;;;;;6.68;5.70;;;18.60;99.90;;;;;;6182655;23;20504;-82
2022/07/12 07:38:04;;;;;;;6.80;5.60;;;18.70;99.90;;;;;;6158334;23;20036;-83
2022/07/12 07:40:29;;;;;;;6.40;5.80;;;18.80;99.90;;;;;;6133115;23;20032;-83
2022/07/12 07:42:58;;;;;;;6.53;5.93;;;19.00;99.90;;;;;;6134192;23;20088;-84
2022/07/12 07:45:24;;;;;;;6.43;5.82;;;19.20;99.90;;;;;;6157072;23;20028;-83
2022/07/12 07:47:50;;;;;;;6.47;5.60;;;19.30;99.90;;;;;;6133563;23;20016;-81
2022/07/12 07:50:16;;;;;;;7.43;6.35;;;19.40;99.90;;;;;;6158302;23;20107;-84
2022/07/12 07:52:42;;;;;;;6.60;5.72;;;19.50;99.90;;;;;;6182743;23;20017;-84
2022/07/12 07:55:49;;;;;;;7.18;5.90;;;19.50;99.90;;;;;;6133244;23;20070;-83
2022/07/12 07:58:16;;;;;;;6.55;5.68;;;19.70;99.90;;;;;;6156635;23;20020;-83
2022/07/12 08:00:41;;;;;;;7.20;6.13;;;19.70;99.90;;;;;;6158309;23;20021;-83
2022/07/12 08:03:10;;;;;;;5.78;5.28;;;19.80;99.90;;;;;;6133622;23;20121;-83
2022/07/12 08:05:36;;;;;;;7.70;6.70;;;20.00;99.90;;;;;;6158920;23;20442;-83
2022/07/12 08:08:03;;;;;;;6.47;5.88;;;20.10;99.90;;;;;;6159195;23;20012;-83
2022/07/12 08:10:29;;;;;;;6.40;5.30;;;20.20;99.90;;;;;;6157811;23;20059;-83
2022/07/12 08:12:54;;;;;;;6.70;6.10;;;20.40;99.90;;;;;;6183010;23;20031;-83
2022/07/12 08:15:21;;;;;;;6.78;5.53;;;20.60;99.90;;;;;;6159581;23;20021;-83
2022/07/12 08:17:46;;;;;;;7.28;6.57;;;20.80;99.90;;;;;;6159939;23;20100;-83
2022/07/12 08:20:15;;;;;;;6.10;5.43;;;21.00;99.90;;;;;;6158729;23;20111;-82
2022/07/12 08:22:46;;;;;;;6.00;5.40;;;21.20;99.90;;;;;;6190502;23;20063;-82
2022/07/12 08:25:13;;;;;;;6.65;5.60;;;21.30;99.90;;;;;;6210314;23;20024;-82
2022/07/12 08:27:39;;;;;;;6.32;4.47;;;21.40;99.90;;;;;;6184373;23;20020;-82
2022/07/12 08:30:06;;;;;;;5.13;3.85;;;21.40;99.90;;;;;;6184381;23;20020;-83
2022/07/12 08:32:31;;;;;;;3.80;3.40;;;21.40;99.90;;;;;;6183188;23;20028;-82
2022/07/12 08:34:57;;;;;;;5.25;3.53;;;21.50;99.90;;;;;;6183542;23;20017;-82
2022/07/12 08:37:23;;;;;;;5.30;4.32;;;21.60;99.90;;;;;;6208217;23;20107;-82
2022/07/12 08:39:49;;;;;;;4.65;3.33;;;21.60;99.90;;;;;;6183236;23;20083;-83
2022/07/12 08:42:17;;;;;;;5.57;4.10;;;21.60;99.90;;;;;;6207492;23;20697;-82
2022/07/12 08:44:55;;;;;;;4.95;4.25;;;21.60;99.90;;;;;;6208193;23;20180;-83
2022/07/12 08:47:26;;;;;;;5.45;4.32;;;21.60;99.90;;;;;;6159338;23;20056;-82
2022/07/12 08:50:19;;;;;;;4.85;3.90;;;21.70;99.90;;;;;;6183685;23;20052;-82
2022/07/12 08:52:46;;;;;;;6.70;4.68;;;21.80;99.90;;;;;;6207291;23;20022;-81
2022/07/12 08:55:26;;;;;;;5.72;4.25;;;22.00;99.90;;;;;;6183660;23;20021;-81
2022/07/12 08:57:54;;;;;;;4.35;3.75;;;22.10;99.90;;;;;;6182654;23;20104;-81
2022/07/12 09:00:21;;;;;;;4.20;3.33;;;22.10;99.90;;;;;;6206807;23;20027;-81
2022/07/12 09:03:01;;;;;;;4.95;4.18;;;22.20;99.90;;;;;;6209942;23;20017;-82
2022/07/12 09:05:31;;;;;;;4.53;4.10;;;22.20;99.90;;;;;;6184651;23;20021;-81
2022/07/12 09:08:06;;;;;;;5.32;4.75;;;22.30;99.90;;;;;;6184473;23;20027;-81
2022/07/12 09:10:51;;;;;;;5.10;3.92;;;22.50;99.90;;;;;;6207568;23;20021;-83
2022/07/12 09:13:18;;;;;;;4.75;4.05;;;22.60;99.90;;;;;;6187561;23;20483;-82
2022/07/12 09:15:46;;;;;;;5.47;4.97;;;22.70;99.90;;;;;;6157985;23;20023;-80
2022/07/12 09:18:17;;;;;;;4.03;3.38;;;22.80;99.90;;;;;;6181990;23;20017;-81
2022/07/12 09:20:51;;;;;;;4.38;3.33;;;22.90;99.90;;;;;;6157826;23;20412;-81
2022/07/12 09:23:17;;;;;;;4.10;3.50;;;23.10;99.90;;;;;;6179532;23;20021;-81
2022/07/12 09:25:44;;;;;;;4.40;3.10;;;23.20;99.90;;;;;;6181256;23;20287;-80
2022/07/12 09:28:10;;;;;;;4.20;3.60;;;23.30;99.90;;;;;;6181001;23;20017;-81
2022/07/12 09:30:47;;;;;;;3.60;2.58;;;23.40;99.90;;;;;;6180939;23;20039;-80
2022/07/12 09:36:13;;;;;;;8.45;3.28;;;23.70;99.90;;;;;;6206065;23;20020;-79
2022/07/12 09:38:49;;;;;;;4.40;3.88;;;23.80;99.90;;;;;;6207081;23;20044;-80
2022/07/12 09:41:25;;;;;;;4.28;3.03;;;23.80;99.90;;;;;;6180847;23;20059;-80
2022/07/12 09:43:51;;;;;;;3.65;2.60;;;23.80;99.90;;;;;;6179365;23;20016;-79
2022/07/12 09:46:17;;;;;;;3.80;2.65;;;23.70;99.90;;;;;;6205457;23;20534;-79
2022/07/12 09:48:44;;;;;;;2.90;2.45;;;23.70;99.90;;;;;;6205868;23;20056;-80
2022/07/12 09:51:13;;;;;;;3.38;2.53;;;23.60;99.90;;;;;;6180793;23;20103;-80
2022/07/12 09:53:47;;;;;;;3.53;2.58;;;23.60;99.90;;;;;;6180244;23;20013;-80
2022/07/12 09:56:19;;;;;;;1.95;1.70;;;23.60;99.90;;;;;;6181119;23;20095;-80
2022/07/12 09:58:51;;;;;;;3.63;2.90;;;23.60;99.90;;;;;;6205412;23;20075;-79
2022/07/12 10:01:19;;;;;;;6.00;2.60;;;23.60;99.90;;;;;;6180822;23;20063;-80
2022/07/12 10:03:45;;;;;;;4.55;2.80;;;23.80;99.90;;;;;;6181230;23;20016;-79
2022/07/12 10:06:15;;;;;;;3.50;2.00;;;24.00;99.90;;;;;;6205577;23;20016;-78
2022/07/12 10:08:41;;;;;;;;;;;24.10;99.90;;;;;;6183408;23;20412;-79
2022/07/12 10:11:07;;;;;;;4.75;3.10;;;24.20;99.90;;;;;;6180477;23;19958;-79
2022/07/12 10:13:35;;;;;;;4.75;2.25;;;24.20;99.90;;;;;;6155839;23;20020;-79
2022/07/12 10:16:02;;;;;;;5.00;3.10;;;24.20;99.90;;;;;;6181436;23;20016;-79
2022/07/12 10:18:29;;;;;;;4.00;2.88;;;24.30;99.90;;;;;;6181285;23;20021;-79
2022/07/12 10:20:58;;;;;;;3.22;2.42;;;24.40;99.90;;;;;;6206268;23;20027;-79
2022/07/12 10:23:35;;;;;;;3.20;2.70;;;24.40;99.90;;;;;;6179623;23;20028;-80
2022/07/12 10:26:14;;;;;;;4.47;2.38;;;24.50;99.90;;;;;;6205574;23;20032;-80
2022/07/12 10:29:00;;;;;;;5.97;2.63;;;24.60;99.90;;;;;;6202027;23;20393;-79
2022/07/12 10:31:30;;;;;;;3.03;2.47;;;24.70;99.90;;;;;;6203915;23;20087;-80
2022/07/12 10:34:14;;;;;;;4.25;2.00;;;24.90;99.90;;;;;;6180459;23;20021;-80
2022/07/12 10:36:55;;;;;;;3.65;2.10;;;24.80;99.90;;;;;;6183229;23;20024;-80
2022/07/12 10:39:26;;;;;;;1.77;1.30;;;24.70;99.90;;;;;;6183433;23;20017;-79
2022/07/12 10:42:07;;;;;;;2.63;1.63;;;24.80;99.90;;;;;;6207707;23;20027;-80
2022/07/12 10:44:49;;;;;;;2.53;1.27;;;24.90;99.90;;;;;;6182216;23;20021;-79
2022/07/12 10:47:16;;;;;;;6.97;2.03;;;25.00;99.90;;;;;;6206785;23;20083;-80
2022/07/12 10:49:50;;;;;;;2.13;1.52;;;25.20;99.90;;;;;;6183095;23;20027;-81
2022/07/12 10:52:22;;;;;;;2.60;1.33;;;25.30;99.90;;;;;;6207040;23;20110;-79
2022/07/12 10:55:14;;;;;;;5.93;1.17;;;25.40;99.90;;;;;;6207173;23;20028;-78
2022/07/12 10:57:46;;;;;;;1.77;1.00;;;25.40;99.90;;;;;;6205447;23;20059;-80
2022/07/12 11:00:13;;;;;;;2.67;1.15;;;25.40;99.90;;;;;;6209154;23;20083;-79
2022/07/12 11:02:40;;;;;;;1.63;1.00;;;25.50;99.90;;;;;;6182938;23;20052;-81
2022/07/12 11:05:06;;;;;;;1.90;0.90;;;25.60;99.90;;;;;;6207971;23;20091;-79
2022/07/12 11:07:32;;;;;;;2.25;0.90;;;25.70;99.90;;;;;;6155807;23;20020;-78
2022/07/12 11:09:58;;;;;;;1.90;0.90;;;25.70;99.90;;;;;;6177434;23;20470;-80
2022/07/12 11:12:30;;;;;;;1.23;0.82;;;25.60;99.90;;;;;;6154919;23;20353;-80
2022/07/12 11:14:58;;;;;;;1.88;0.90;;;25.60;99.90;;;;;;6201710;23;20020;-79
2022/07/12 11:17:32;;;;;;;3.08;1.00;;;25.70;99.90;;;;;;6206666;23;20052;-79
2022/07/12 11:20:09;;;;;;;3.50;0.80;;;25.80;99.90;;;;;;6208549;23;20025;-79
2022/07/12 11:22:37;;;;;;;1.75;0.80;;;26.00;99.90;;;;;;6204792;23;20048;-79
2022/07/12 11:25:05;;;;;;;1.65;0.90;;;26.10;99.90;;;;;;6179086;23;20374;-79
2022/07/12 11:27:31;;;;;;;1.70;1.00;;;26.20;99.90;;;;;;6179690;23;20039;-79
2022/07/12 11:29:58;;;;;;;1.35;0.70;;;26.20;99.90;;;;;;6182486;23;20342;-79
2022/07/12 11:32:39;;;;;;;1.05;0.80;;;26.30;99.90;;;;;;6206659;23;20076;-78
2022/07/12 11:35:18;;;;;;;3.83;1.10;;;26.40;99.90;;;;;;6208294;23;20071;-79
2022/07/12 11:38:04;;;;;;;4.60;1.10;;;26.40;99.90;;;;;;6181929;23;20017;-79
2022/07/12 11:40:30;;;;;;;1.45;1.00;;;26.40;99.90;;;;;;6205666;23;20020;-80
2022/07/12 11:42:58;;;;;;;2.72;0.95;;;26.40;99.90;;;;;;6181701;23;20017;-79
2022/07/12 11:45:26;;;;;;;1.85;0.85;;;26.50;99.90;;;;;;6181673;23;20044;-79
2022/07/12 11:47:56;;;;;;;1.98;0.75;;;26.50;99.50;;;;;;6182660;23;20035;-80
2022/07/12 11:50:24;;;;;;;1.77;0.68;;;26.50;99.90;;;;;;6182436;23;20028;-79
2022/07/12 11:52:50;;;;;;;1.15;0.52;;;26.60;99.90;;;;;;6182530;23;20020;-79
2022/07/12 11:55:16;;;;;;;1.90;0.70;;;26.70;99.90;;;;;;6181748;23;20093;-79
2022/07/12 11:57:43;;;;;;;2.47;0.70;;;26.70;99.10;;;;;;6207845;23;20816;-77
2022/07/12 12:00:26;;;;;;;0.93;0.60;;;26.70;98.10;;;;;;6183084;23;20457;-80
2022/07/12 12:02:55;;;;;;;1.50;0.68;;;26.70;99.90;;;;;;6158308;23;20484;-79
2022/07/12 12:05:21;;;;;;;1.30;0.65;;;26.70;99.90;;;;;;6208477;23;20079;-80
2022/07/12 12:07:47;;;;;;;1.65;0.50;;;26.70;99.90;;;;;;6183355;23;20027;-79
2022/07/12 12:10:17;;;;;;;1.85;0.55;;;26.70;99.90;;;;;;6208183;23;20388;-79
2022/07/12 12:12:51;;;;;;;;;;;26.70;99.10;;;;;;6209078;23;20090;-78
2022/07/12 12:15:19;;;;;;;1.33;0.55;;;26.80;95.50;;;;;;6183073;23;19916;-79
2022/07/12 12:17:55;;;;;;;1.63;0.40;;;26.90;96.30;;;;;;6182534;23;20048;-80
2022/07/12 12:20:27;;;;;;;1.85;0.80;;;27.00;97.00;;;;;;6184112;23;20099;-79
2022/07/12 12:22:58;;;;;;;1.10;0.65;;;27.00;95.20;;;;;;6207561;23;20020;-79
2022/07/12 12:25:25;;;;;;;1.35;0.40;;;27.00;97.20;;;;;;6206615;23;20027;-79
2022/07/12 12:28:04;;;;;;;1.67;0.60;;;27.10;99.90;;;;;;6207289;23;20616;-79
2022/07/12 12:30:32;;;;;;;1.75;0.70;;;27.20;99.90;;;;;;6182190;23;20098;-79
2022/07/12 12:33:02;;;;;;;1.40;0.75;;;27.40;98.70;;;;;;6207485;23;20020;-79
2022/07/12 12:35:36;;;;;;;2.55;1.00;;;27.50;96.20;;;;;;6182047;23;20323;-78
2022/07/12 12:38:13;;;;;;;1.77;0.70;;;27.60;95.40;;;;;;6207465;23;20377;-79
2022/07/12 12:40:39;;;;;;;1.60;1.10;;;27.60;93.90;;;;;;6183708;23;20092;-79
2022/07/12 12:43:12;;;;;;;4.70;1.30;;;27.50;95.30;;;;;;6182344;23;20039;-78
2022/07/12 12:45:56;;;;;;;2.20;1.10;;;27.40;96.30;;;;;;6207511;23;20028;-79
2022/07/12 12:48:27;;;;;;;2.97;1.08;;;27.30;96.10;;;;;;6158983;23;20071;-79
2022/07/12 12:51:04;;;;;;;2.35;0.88;;;27.30;94.00;;;;;;6182424;23;20433;-79
2022/07/12 12:53:30;;;;;;;1.42;0.60;;;27.20;95.70;;;;;;6182474;23;20056;-78
2022/07/12 12:55:56;;;;;;;7.07;0.70;;;27.30;95.10;;;;;;6182342;23;20023;-79
2022/07/12 12:58:26;;;;;;;1.52;0.40;;;27.40;94.70;;;;;;6183793;23;20020;-79
2022/07/12 13:00:57;;;;;;;1.63;0.50;;;27.50;93.10;;;;;;6207681;23;20051;-79
2022/07/12 13:03:25;;;;;;;1.48;0.55;;;27.60;91.50;;;;;;6183450;23;20066;-79